Terminal Aerodrome Forecast
Issued by NWS Cleveland, OH

Home | Current Version | Previous Version | Text Only | Print | Product List | Glossary On
Versions: 1 2 3 4 5 6 7 8 9 10 11 12 13 14 15 16 17 18 19
889
FTUS41 KCLE 230523
TAFYNG
TAF
KYNG 230523Z 2306/2406 19008KT P6SM OVC012
      TEMPO 2306/2309 5SM BR OVC008
     FM230900 19008KT 5SM BR BKN012
      TEMPO 2309/2313 2SM BR BKN008
     FM231600 22010KT 6SM HZ OVC025
     FM232200 23006KT 5SM BR VCSH OVC025
     FM240300 12005KT 3SM -RA BR OVC012=

USA.gov is the U.S. government's official web portal to all federal, state and local government web resources and services.